createdAt,value
2019-03-05T00:00:43.157Z,988.15
2019-03-05T00:01:43.423Z,988.18
2019-03-05T00:02:43.331Z,988.04
2019-03-05T00:03:44.574Z,988.09
2019-03-05T00:04:43.339Z,988.03
2019-03-05T00:05:43.158Z,988.16
2019-03-05T00:06:43.095Z,988.22
2019-03-05T00:07:43.133Z,988.08
2019-03-05T00:08:43.252Z,988.04
2019-03-05T00:09:43.125Z,988.07
2019-03-05T00:10:42.910Z,987.98
2019-03-05T00:11:42.960Z,987.95
2019-03-05T00:12:42.850Z,987.99
2019-03-05T00:13:42.996Z,988.00
2019-03-05T00:14:42.801Z,988.12
2019-03-05T00:15:43.453Z,988.14
2019-03-05T00:17:42.940Z,988.11
2019-03-05T00:18:42.824Z,988.11
2019-03-05T00:20:42.776Z,987.95
2019-03-05T00:21:42.642Z,988.06
2019-03-05T00:22:42.916Z,988.15
2019-03-05T00:23:42.684Z,987.96
2019-03-05T00:24:42.573Z,988.07
2019-03-05T00:25:42.699Z,988.17
2019-03-05T00:26:42.829Z,988.27
2019-03-05T00:27:42.513Z,988.09
2019-03-05T00:28:42.563Z,988.44
2019-03-05T00:29:42.748Z,988.11
2019-03-05T00:30:42.463Z,988.18
2019-03-05T00:31:42.529Z,988.06
2019-03-05T00:32:42.479Z,988.00
2019-03-05T00:33:42.370Z,988.02
2019-03-05T00:34:42.433Z,988.05
2019-03-05T00:35:42.410Z,988.03
2019-03-05T00:36:42.588Z,987.99
2019-03-05T00:37:42.347Z,988.11
2019-03-05T00:38:42.629Z,988.02
2019-03-05T00:39:42.277Z,988.27
2019-03-05T00:40:42.282Z,988.53
2019-03-05T00:41:42.379Z,988.05
2019-03-05T00:42:42.444Z,988.05
2019-03-05T00:43:42.233Z,988.10
2019-03-05T00:44:42.100Z,988.05
2019-03-05T00:45:42.168Z,988.05
2019-03-05T00:46:42.235Z,988.12
2019-03-05T00:47:42.078Z,988.03
2019-03-05T00:48:42.403Z,988.10
2019-03-05T00:49:42.079Z,988.09
2019-03-05T00:50:42.190Z,988.06
2019-03-05T00:51:42.019Z,988.13
2019-03-05T00:52:41.909Z,988.17
2019-03-05T00:53:41.969Z,988.04
2019-03-05T00:54:42.352Z,988.19
2019-03-05T00:55:41.848Z,988.07
2019-03-05T00:56:42.066Z,988.37
2019-03-05T00:57:41.790Z,988.26
2019-03-05T00:58:42.011Z,988.10
2019-03-05T00:59:42.001Z,988.14
2019-03-05T01:00:42.321Z,988.15
2019-03-05T01:02:42.365Z,988.16
2019-03-05T01:03:41.886Z,988.17
2019-03-05T01:04:41.850Z,988.20
2019-03-05T01:05:41.727Z,988.20
2019-03-05T01:07:41.861Z,988.16
2019-03-05T01:08:41.584Z,988.29
2019-03-05T01:09:41.598Z,988.13
2019-03-05T01:10:41.585Z,988.22
2019-03-05T01:11:41.688Z,988.26
2019-03-05T01:12:41.598Z,988.21
2019-03-05T01:13:41.805Z,988.25
2019-03-05T01:14:41.399Z,988.30
2019-03-05T01:15:41.470Z,988.25
2019-03-05T01:16:41.565Z,988.27
2019-03-05T01:17:41.417Z,988.20
2019-03-05T01:18:41.392Z,988.22
2019-03-05T01:19:41.418Z,988.29
2019-03-05T01:20:41.638Z,988.15
2019-03-05T01:21:41.323Z,988.24
2019-03-05T01:22:41.317Z,988.16
2019-03-05T01:23:41.324Z,988.16
2019-03-05T01:24:41.215Z,988.15
2019-03-05T01:25:41.137Z,988.24
2019-03-05T01:26:41.501Z,988.17
2019-03-05T01:27:41.479Z,988.14
2019-03-05T01:28:41.062Z,988.26
2019-03-05T01:29:41.223Z,988.10
2019-03-05T01:30:41.218Z,988.17
2019-03-05T01:32:41.075Z,988.10
2019-03-05T01:33:41.167Z,988.23
2019-03-05T01:34:41.382Z,987.99
2019-03-05T01:35:41.293Z,988.09
2019-03-05T01:36:41.036Z,988.08
2019-03-05T01:37:41.118Z,988.05
2019-03-05T01:38:41.100Z,988.20
2019-03-05T01:39:41.010Z,988.19
2019-03-05T01:40:41.279Z,988.19
2019-03-05T01:41:40.943Z,988.11
2019-03-05T01:42:40.934Z,988.20
2019-03-05T01:43:41.116Z,988.28
2019-03-05T01:44:40.903Z,988.36
2019-03-05T01:45:40.911Z,988.44
2019-03-05T01:46:40.705Z,988.08
2019-03-05T01:47:41.073Z,988.14
2019-03-05T01:48:40.696Z,988.03
2019-03-05T01:49:40.736Z,988.09
2019-03-05T01:50:40.868Z,988.09
2019-03-05T01:51:40.590Z,988.14
2019-03-05T01:52:40.603Z,988.14
2019-03-05T01:53:40.866Z,988.18
2019-03-05T01:54:40.865Z,988.13
2019-03-05T01:55:40.560Z,988.21
2019-03-05T01:56:40.901Z,988.25
2019-03-05T01:58:40.356Z,988.13
2019-03-05T01:59:40.401Z,988.09
2019-03-05T02:00:40.307Z,988.18
2019-03-05T02:01:40.667Z,988.13
2019-03-05T02:02:40.351Z,988.12
2019-03-05T02:03:40.323Z,988.11
2019-03-05T02:04:40.213Z,988.11
2019-03-05T02:05:40.281Z,988.11
2019-03-05T02:06:40.170Z,988.08
2019-03-05T02:07:40.442Z,988.09
2019-03-05T02:08:40.212Z,988.15
2019-03-05T02:09:40.185Z,988.13
2019-03-05T02:10:40.158Z,988.12
2019-03-05T02:13:40.312Z,988.04
2019-03-05T02:14:40.060Z,988.10
2019-03-05T02:15:39.952Z,988.02
2019-03-05T02:16:39.933Z,988.04
2019-03-05T02:17:39.903Z,988.14
2019-03-05T02:18:39.974Z,988.17
2019-03-05T02:19:40.155Z,988.25
2019-03-05T02:20:39.835Z,988.19
2019-03-05T02:21:39.810Z,988.22
2019-03-05T02:23:39.854Z,988.23
2019-03-05T02:24:39.821Z,988.15
2019-03-05T02:25:40.096Z,988.20
2019-03-05T02:27:39.798Z,988.13
2019-03-05T02:28:39.724Z,988.16
2019-03-05T02:29:39.714Z,988.66
2019-03-05T02:30:39.685Z,988.58
2019-03-05T02:31:39.972Z,988.38
2019-03-05T02:32:39.664Z,988.41
2019-03-05T02:33:39.898Z,988.31
2019-03-05T02:34:39.583Z,988.43
2019-03-05T02:35:39.470Z,988.43
2019-03-05T02:36:39.468Z,988.42
2019-03-05T02:37:39.883Z,988.43
2019-03-05T02:38:39.397Z,988.50
2019-03-05T02:39:39.430Z,988.56
2019-03-05T02:40:39.436Z,988.67
2019-03-05T02:41:39.426Z,988.52
2019-03-05T02:42:39.304Z,988.58
2019-03-05T02:43:39.377Z,988.50
2019-03-05T02:44:39.640Z,988.62
2019-03-05T02:45:39.319Z,988.64
2019-03-05T02:46:39.286Z,988.70
2019-03-05T02:47:39.294Z,988.69
2019-03-05T02:48:39.273Z,988.63
2019-03-05T02:49:39.389Z,988.68
2019-03-05T02:50:39.193Z,988.70
2019-03-05T02:51:39.391Z,988.80
2019-03-05T02:52:39.233Z,988.73
2019-03-05T02:53:39.155Z,988.74
2019-03-05T02:54:39.265Z,988.76
2019-03-05T02:57:39.301Z,988.75
2019-03-05T02:58:39.077Z,988.82
2019-03-05T02:59:39.066Z,988.86
2019-03-05T03:00:38.955Z,988.87
2019-03-05T03:01:39.217Z,989.07
2019-03-05T03:02:39.282Z,988.88
2019-03-05T03:03:38.949Z,988.89
2019-03-05T03:04:39.315Z,988.91
2019-03-05T03:05:39.709Z,988.98
2019-03-05T03:06:38.725Z,989.04
2019-03-05T03:07:38.691Z,988.92
2019-03-05T03:08:38.751Z,988.95
2019-03-05T03:09:38.648Z,988.99
2019-03-05T03:10:38.704Z,988.94
2019-03-05T03:11:38.902Z,989.08
2019-03-05T03:12:38.669Z,989.14
2019-03-05T03:13:38.561Z,989.03
2019-03-05T03:14:38.624Z,989.06
2019-03-05T03:15:38.629Z,989.16
2019-03-05T03:16:38.671Z,989.17
2019-03-05T03:17:38.537Z,989.13
2019-03-05T03:18:38.808Z,989.20
2019-03-05T03:19:38.396Z,989.17
2019-03-05T03:20:38.474Z,989.09
2019-03-05T03:21:38.533Z,989.05
2019-03-05T03:22:38.323Z,989.17
2019-03-05T03:23:38.384Z,989.04
2019-03-05T03:24:38.374Z,989.15
2019-03-05T03:26:38.611Z,989.03
2019-03-05T03:27:38.301Z,989.05
2019-03-05T03:28:38.283Z,989.14
2019-03-05T03:29:38.176Z,989.11
2019-03-05T03:30:38.212Z,989.11
2019-03-05T03:31:38.099Z,989.00
2019-03-05T03:32:38.469Z,989.01
2019-03-05T03:33:38.156Z,989.03
2019-03-05T03:34:38.206Z,989.18
2019-03-05T03:35:38.091Z,989.15
2019-03-05T03:36:38.090Z,989.16
2019-03-05T03:37:38.033Z,989.19
2019-03-05T03:38:38.227Z,989.13
2019-03-05T03:39:37.951Z,989.16
2019-03-05T03:40:37.868Z,989.18
2019-03-05T03:41:37.845Z,989.20
2019-03-05T03:42:38.011Z,989.23
2019-03-05T03:43:37.964Z,989.16
2019-03-05T03:44:38.183Z,989.25
2019-03-05T03:45:37.853Z,989.26
2019-03-05T03:46:37.872Z,989.22
2019-03-05T03:47:37.801Z,989.22
2019-03-05T03:48:38.142Z,989.24
2019-03-05T03:49:37.864Z,989.26
2019-03-05T03:50:37.920Z,989.35
2019-03-05T03:52:37.711Z,989.33
2019-03-05T03:53:37.546Z,989.29
2019-03-05T03:54:37.521Z,989.33
2019-03-05T03:55:37.601Z,989.32
2019-03-05T03:56:37.856Z,989.29
2019-03-05T03:57:37.530Z,989.23
2019-03-05T03:58:37.534Z,989.27
2019-03-05T03:59:37.398Z,989.21
2019-03-05T04:00:37.370Z,989.23
2019-03-05T04:01:37.341Z,989.20
2019-03-05T04:02:37.810Z,989.25
2019-03-05T04:03:37.378Z,989.31
2019-03-05T04:04:37.355Z,989.31
2019-03-05T04:05:37.256Z,989.30
2019-03-05T04:06:37.406Z,989.23
2019-03-05T04:07:37.279Z,989.32
2019-03-05T04:08:37.261Z,989.35
2019-03-05T04:09:37.531Z,989.39
2019-03-05T04:10:37.212Z,989.40
2019-03-05T04:11:37.181Z,989.32
2019-03-05T04:13:37.146Z,989.47
2019-03-05T04:14:37.210Z,989.39
2019-03-05T04:15:37.379Z,989.50
2019-03-05T04:17:37.020Z,989.36
2019-03-05T04:18:36.967Z,989.37
2019-03-05T04:19:36.978Z,989.47
2019-03-05T04:20:36.971Z,989.46
2019-03-05T04:21:36.844Z,989.39
2019-03-05T04:22:37.208Z,989.46
2019-03-05T04:23:36.844Z,989.42
2019-03-05T04:24:36.876Z,989.39
2019-03-05T04:26:36.725Z,989.36
2019-03-05T04:27:36.780Z,989.48
2019-03-05T04:28:36.812Z,989.36
2019-03-05T04:29:37.048Z,989.32
2019-03-05T04:30:36.737Z,989.41
2019-03-05T04:31:36.800Z,989.49
2019-03-05T04:32:36.662Z,989.57
2019-03-05T04:33:36.698Z,989.57
2019-03-05T04:34:36.609Z,989.46
2019-03-05T04:36:36.883Z,989.53
2019-03-05T04:37:36.638Z,989.50
2019-03-05T04:38:36.429Z,989.53
2019-03-05T04:39:36.599Z,989.49
2019-03-05T04:40:36.372Z,989.57
2019-03-05T04:41:36.350Z,989.58
2019-03-05T04:42:36.622Z,989.51
2019-03-05T04:43:36.303Z,989.44
2019-03-05T04:44:36.273Z,989.50
2019-03-05T04:45:36.377Z,989.35
2019-03-05T04:46:36.325Z,989.49
2019-03-05T04:47:36.198Z,989.57
2019-03-05T04:48:36.557Z,989.53
2019-03-05T04:49:36.147Z,989.59
2019-03-05T04:50:36.127Z,989.47
2019-03-05T04:51:36.105Z,989.53
2019-03-05T04:52:36.072Z,989.53
2019-03-05T04:53:36.178Z,989.59
2019-03-05T04:54:36.327Z,989.50
2019-03-05T04:55:36.138Z,989.43
2019-03-05T04:56:35.971Z,989.63
2019-03-05T04:57:35.950Z,989.47
2019-03-05T04:58:36.175Z,989.50
2019-03-05T04:59:36.039Z,989.80
2019-03-05T05:00:35.928Z,989.56
2019-03-05T05:01:37.711Z,989.57
2019-03-05T05:02:36.033Z,989.61
2019-03-05T05:03:35.890Z,989.74
2019-03-05T05:04:35.901Z,989.66
2019-03-05T05:05:35.981Z,989.60
2019-03-05T05:06:35.871Z,989.73
2019-03-05T05:08:35.765Z,989.68
2019-03-05T05:09:37.754Z,989.73
2019-03-05T05:10:35.932Z,989.65
2019-03-05T05:11:35.692Z,989.67
2019-03-05T05:12:35.744Z,989.75
2019-03-05T05:13:35.994Z,989.85
2019-03-05T05:14:35.627Z,989.72
2019-03-05T05:16:35.574Z,989.82
2019-03-05T05:17:35.535Z,989.87
2019-03-05T05:18:35.434Z,989.88
2019-03-05T05:19:35.730Z,989.89
2019-03-05T05:20:35.379Z,989.72
2019-03-05T05:21:35.937Z,989.84
2019-03-05T05:22:37.004Z,989.92
2019-03-05T05:23:35.987Z,989.88
2019-03-05T05:24:35.949Z,989.93
2019-03-05T05:25:35.879Z,989.93
2019-03-05T05:26:35.331Z,990.00
2019-03-05T05:27:35.300Z,990.07
2019-03-05T05:29:35.165Z,989.99
2019-03-05T05:30:35.268Z,990.06
2019-03-05T05:31:35.370Z,990.11
2019-03-05T05:32:35.583Z,989.99
2019-03-05T05:33:35.061Z,990.09
2019-03-05T05:34:35.036Z,990.16
2019-03-05T05:35:35.020Z,990.17
2019-03-05T05:36:35.065Z,990.31
2019-03-05T05:37:35.052Z,990.18
2019-03-05T05:38:35.025Z,990.15
2019-03-05T05:39:35.220Z,990.15
2019-03-05T05:40:34.942Z,990.21
2019-03-05T05:41:34.863Z,990.20
2019-03-05T05:42:34.898Z,990.21
2019-03-05T05:43:34.930Z,990.23
2019-03-05T05:44:35.091Z,990.22
2019-03-05T05:45:35.071Z,990.19
2019-03-05T05:46:34.738Z,990.37
2019-03-05T05:47:34.789Z,990.20
2019-03-05T05:48:34.789Z,990.20
2019-03-05T05:49:34.829Z,990.34
2019-03-05T05:50:34.733Z,990.30
2019-03-05T05:51:34.724Z,990.38
2019-03-05T05:52:35.277Z,990.31
2019-03-05T05:53:34.670Z,990.36
2019-03-05T05:55:34.670Z,990.38
2019-03-05T05:56:34.616Z,990.35
2019-03-05T05:57:35.980Z,990.43
2019-03-05T05:59:34.730Z,990.32
2019-03-05T06:00:34.503Z,990.34
2019-03-05T06:01:34.479Z,990.42
2019-03-05T06:02:34.448Z,990.50
2019-03-05T06:03:34.399Z,990.59
2019-03-05T06:04:34.531Z,990.57
2019-03-05T06:05:34.480Z,990.70
2019-03-05T06:06:34.750Z,990.65
2019-03-05T06:07:34.472Z,990.70
2019-03-05T06:08:34.378Z,990.60
2019-03-05T06:09:34.177Z,990.71
2019-03-05T06:10:34.338Z,990.70
2019-03-05T06:11:34.229Z,990.85
2019-03-05T06:12:34.650Z,990.87
2019-03-05T06:13:34.180Z,990.89
2019-03-05T06:14:34.157Z,990.95
2019-03-05T06:15:34.219Z,990.86
2019-03-05T06:16:34.251Z,990.81
2019-03-05T06:17:34.284Z,990.84
2019-03-05T06:18:34.464Z,990.91
2019-03-05T06:19:34.235Z,990.84
2019-03-05T06:20:34.162Z,990.99
2019-03-05T06:21:34.261Z,990.79
2019-03-05T06:22:34.235Z,990.84
2019-03-05T06:23:34.031Z,990.95
2019-03-05T06:24:34.437Z,990.92
2019-03-05T06:25:33.944Z,990.86
2019-03-05T06:26:33.887Z,990.99
2019-03-05T06:27:34.027Z,991.10
2019-03-05T06:28:33.703Z,991.06
2019-03-05T06:29:33.814Z,991.09
2019-03-05T06:30:34.067Z,991.09
2019-03-05T06:31:33.678Z,991.34
2019-03-05T06:32:33.744Z,991.19
2019-03-05T06:33:33.706Z,991.12
2019-03-05T06:34:33.819Z,991.24
2019-03-05T06:35:33.660Z,991.34
2019-03-05T06:36:34.166Z,991.25
2019-03-05T06:37:34.007Z,991.23
2019-03-05T06:38:33.680Z,991.20
2019-03-05T06:39:33.754Z,991.22
2019-03-05T06:40:33.679Z,991.30
2019-03-05T06:41:33.669Z,991.22
2019-03-05T06:42:33.877Z,991.37
2019-03-05T06:43:33.384Z,991.36
2019-03-05T06:44:33.346Z,991.24
2019-03-05T06:45:33.394Z,991.33
2019-03-05T06:46:33.461Z,991.21
2019-03-05T06:47:33.550Z,991.42
2019-03-05T06:48:33.678Z,991.42
2019-03-05T06:49:33.427Z,991.37
2019-03-05T06:50:33.355Z,991.41
2019-03-05T06:53:33.283Z,991.41
2019-03-05T06:54:33.662Z,991.43
2019-03-05T06:55:33.307Z,991.52
2019-03-05T06:56:33.357Z,991.40
2019-03-05T06:58:33.112Z,991.54
2019-03-05T07:01:33.244Z,991.49
2019-03-05T07:02:32.856Z,991.56
2019-03-05T07:03:33.006Z,991.49
2019-03-05T07:05:32.895Z,991.52
2019-03-05T07:06:32.831Z,991.48
2019-03-05T07:07:33.104Z,991.48
2019-03-05T07:08:32.754Z,991.52
2019-03-05T07:09:32.836Z,991.57
2019-03-05T07:10:32.664Z,991.60
2019-03-05T07:11:32.693Z,991.54
2019-03-05T07:13:32.988Z,991.56
2019-03-05T07:14:32.760Z,991.67
2019-03-05T07:15:32.801Z,991.72
2019-03-05T07:16:32.710Z,991.76
2019-03-05T07:17:32.887Z,991.70
2019-03-05T07:18:32.760Z,991.72
2019-03-05T07:19:33.071Z,991.83
2019-03-05T07:20:32.733Z,991.70
2019-03-05T07:21:32.763Z,991.76
2019-03-05T07:22:32.658Z,991.87
2019-03-05T07:23:32.570Z,991.80
2019-03-05T07:24:32.915Z,991.92
2019-03-05T07:25:32.897Z,991.81
2019-03-05T07:26:32.449Z,991.84
2019-03-05T07:27:32.533Z,991.82
2019-03-05T07:28:32.343Z,991.84
2019-03-05T07:29:32.262Z,991.85
2019-03-05T07:30:32.201Z,991.86
2019-03-05T07:31:32.462Z,991.89
2019-03-05T07:32:32.285Z,991.84
2019-03-05T07:33:32.123Z,991.86
2019-03-05T07:34:32.188Z,991.86
2019-03-05T07:35:32.029Z,991.83
2019-03-05T07:36:32.075Z,991.87
2019-03-05T07:37:32.303Z,991.76
2019-03-05T07:38:32.032Z,991.89
2019-03-05T07:39:32.057Z,991.94
2019-03-05T07:40:32.211Z,991.89
2019-03-05T07:41:32.003Z,991.99
2019-03-05T07:42:31.958Z,992.01
2019-03-05T07:43:36.427Z,992.52
2019-03-05T07:44:32.003Z,992.49
2019-03-05T07:45:31.832Z,992.56
2019-03-05T07:46:31.755Z,992.48
2019-03-05T07:47:31.852Z,992.46
2019-03-05T07:48:31.845Z,992.57
2019-03-05T07:49:42.928Z,992.47
2019-03-05T07:50:31.704Z,992.48
2019-03-05T07:51:31.669Z,992.53
2019-03-05T07:52:31.679Z,992.50
2019-03-05T07:53:31.671Z,992.57
2019-03-05T07:54:31.678Z,992.37
2019-03-05T07:55:31.936Z,992.63
2019-03-05T07:58:31.562Z,992.63
2019-03-05T07:59:31.527Z,992.52
2019-03-05T08:00:31.451Z,992.32
2019-03-05T08:01:31.943Z,992.43
2019-03-05T08:02:31.499Z,992.43
2019-03-05T08:03:31.490Z,992.57
2019-03-05T08:04:31.333Z,992.60
2019-03-05T08:05:31.403Z,992.41
2019-03-05T08:06:31.349Z,992.59
2019-03-05T08:07:31.765Z,992.75
2019-03-05T08:08:31.368Z,992.78
2019-03-05T08:09:31.292Z,992.59
2019-03-05T08:10:31.310Z,992.60
2019-03-05T08:11:31.935Z,992.59
2019-03-05T08:12:31.283Z,992.48
2019-03-05T08:13:31.667Z,992.66
2019-03-05T08:14:31.593Z,992.66
2019-03-05T08:16:31.212Z,992.59
2019-03-05T08:17:31.109Z,992.61
2019-03-05T08:18:31.124Z,992.49
2019-03-05T08:19:31.499Z,992.47
2019-03-05T08:20:31.247Z,992.71
2019-03-05T08:21:31.106Z,993.05
2019-03-05T08:22:31.096Z,993.01
2019-03-05T08:23:31.083Z,992.96
2019-03-05T08:24:31.133Z,992.79
2019-03-05T08:25:31.198Z,993.01
2019-03-05T08:26:30.817Z,992.96
2019-03-05T08:27:30.969Z,992.71
2019-03-05T08:28:30.994Z,992.77
2019-03-05T08:29:30.817Z,992.88
2019-03-05T08:30:30.861Z,992.82
2019-03-05T08:31:31.061Z,992.77
2019-03-05T08:32:30.744Z,992.78
2019-03-05T08:33:30.764Z,992.65
2019-03-05T08:34:30.785Z,992.73
2019-03-05T08:35:31.055Z,992.74
2019-03-05T08:36:30.760Z,993.07
2019-03-05T08:37:31.077Z,992.73
2019-03-05T08:38:30.733Z,992.82
2019-03-05T08:39:30.678Z,992.82
2019-03-05T08:40:30.554Z,993.03
2019-03-05T08:41:30.485Z,992.89
2019-03-05T08:42:30.439Z,992.80
2019-03-05T08:43:30.771Z,992.90
2019-03-05T08:44:30.513Z,992.67
2019-03-05T08:45:30.553Z,992.79
2019-03-05T08:46:30.401Z,992.78
2019-03-05T08:47:30.387Z,992.77
2019-03-05T08:48:30.490Z,992.88
2019-03-05T08:49:30.639Z,992.83
2019-03-05T08:50:31.115Z,992.82
2019-03-05T08:52:30.360Z,992.81
2019-03-05T08:53:33.120Z,992.86
2019-03-05T08:55:31.042Z,992.97
2019-03-05T08:56:30.469Z,992.96
2019-03-05T08:57:30.129Z,993.01
2019-03-05T08:58:30.909Z,993.07
2019-03-05T08:59:32.568Z,993.03
2019-03-05T09:00:30.095Z,993.10
2019-03-05T09:01:30.375Z,993.05
2019-03-05T09:02:30.063Z,993.20
2019-03-05T09:03:30.149Z,993.24
2019-03-05T09:04:30.348Z,993.29
2019-03-05T09:05:30.021Z,993.25
2019-03-05T09:06:30.056Z,993.25
2019-03-05T09:08:30.060Z,993.15
2019-03-05T09:09:31.182Z,993.21
2019-03-05T09:10:30.097Z,993.15
2019-03-05T09:11:29.965Z,993.24
2019-03-05T09:12:30.042Z,993.23
2019-03-05T09:13:32.889Z,993.30
2019-03-05T09:14:31.352Z,993.30
2019-03-05T09:15:31.525Z,993.15
2019-03-05T09:16:29.888Z,993.36
2019-03-05T09:17:29.774Z,993.32
2019-03-05T09:18:30.091Z,993.31
2019-03-05T09:19:30.333Z,993.32
2019-03-05T09:20:29.924Z,993.32
2019-03-05T09:21:29.686Z,993.19
2019-03-05T09:22:29.609Z,993.36
2019-03-05T09:23:29.677Z,993.26
2019-03-05T09:24:31.158Z,993.31
2019-03-05T09:25:30.011Z,993.41
2019-03-05T09:26:29.757Z,993.51
2019-03-05T09:27:29.621Z,993.44
2019-03-05T09:28:29.727Z,993.42
2019-03-05T09:29:29.518Z,993.39
2019-03-05T09:30:29.552Z,993.59
2019-03-05T09:31:29.873Z,993.68
2019-03-05T09:32:29.534Z,993.62
2019-03-05T09:33:29.658Z,993.59
2019-03-05T09:34:29.328Z,993.44
2019-03-05T09:35:29.292Z,993.78
2019-03-05T09:36:29.462Z,994.60
2019-03-05T09:37:29.854Z,994.00
2019-03-05T09:38:29.572Z,994.12
2019-03-05T09:39:29.362Z,993.66
2019-03-05T09:40:29.267Z,993.64
2019-03-05T09:42:39.357Z,993.85
2019-03-05T09:43:29.543Z,993.85
2019-03-05T09:44:29.943Z,994.76
2019-03-05T09:45:29.543Z,994.41
2019-03-05T09:46:29.033Z,994.03
2019-03-05T09:47:29.005Z,993.93
2019-03-05T09:49:29.434Z,993.95
2019-03-05T09:51:29.020Z,993.87
2019-03-05T09:52:29.292Z,993.88
2019-03-05T09:53:28.963Z,993.92
2019-03-05T09:54:29.006Z,993.93
2019-03-05T09:55:29.309Z,994.11
2019-03-05T09:56:28.929Z,993.96
2019-03-05T09:57:28.816Z,994.01
2019-03-05T09:58:28.791Z,993.91
2019-03-05T09:59:28.865Z,993.81
2019-03-05T10:00:28.814Z,993.89
2019-03-05T10:01:29.303Z,993.87
2019-03-05T10:02:28.940Z,993.96
2019-03-05T10:03:28.719Z,993.79
2019-03-05T10:04:28.693Z,993.89
2019-03-05T10:05:28.766Z,993.82
2019-03-05T10:06:28.598Z,993.83
2019-03-05T10:07:29.023Z,993.96
2019-03-05T10:08:32.544Z,993.95
2019-03-05T10:09:28.576Z,993.86
2019-03-05T10:10:28.552Z,994.02
2019-03-05T10:11:28.469Z,995.00
2019-03-05T10:12:30.188Z,994.87
2019-03-05T10:13:28.933Z,994.87
2019-03-05T10:14:28.483Z,994.44
2019-03-05T10:15:28.548Z,994.54
2019-03-05T10:16:28.864Z,994.61
2019-03-05T10:17:37.602Z,993.84
2019-03-05T10:18:28.494Z,993.74
2019-03-05T10:19:29.300Z,994.78
2019-03-05T10:20:28.353Z,994.83
2019-03-05T10:21:28.629Z,994.81
2019-03-05T10:22:28.858Z,994.90
2019-03-05T10:23:28.341Z,994.78
2019-03-05T10:24:28.278Z,994.24
2019-03-05T10:25:28.582Z,994.77
2019-03-05T10:26:28.150Z,994.93
2019-03-05T10:27:28.195Z,994.10
2019-03-05T10:28:28.169Z,993.88
2019-03-05T10:31:28.624Z,994.12
2019-03-05T10:32:28.157Z,994.31
2019-03-05T10:34:28.036Z,994.30
2019-03-05T10:35:28.135Z,994.42
2019-03-05T10:36:28.008Z,994.20
2019-03-05T10:37:28.336Z,994.22
2019-03-05T10:38:27.960Z,994.21
2019-03-05T10:41:27.878Z,994.22
2019-03-05T10:42:31.725Z,994.17
2019-03-05T10:43:28.345Z,994.09
2019-03-05T10:44:27.881Z,994.05
2019-03-05T10:45:27.853Z,993.96
2019-03-05T10:46:27.846Z,994.06
2019-03-05T10:47:27.811Z,994.03
2019-03-05T10:48:30.263Z,994.12
2019-03-05T10:50:28.042Z,994.12
2019-03-05T10:51:27.702Z,994.21
2019-03-05T10:52:27.698Z,994.78
2019-03-05T10:53:27.752Z,994.85
2019-03-05T10:54:27.666Z,994.19
2019-03-05T10:55:27.625Z,994.52
2019-03-05T10:56:28.149Z,994.17
2019-03-05T10:57:27.690Z,994.63
2019-03-05T10:59:27.644Z,994.75
2019-03-05T11:00:27.675Z,994.80
2019-03-05T11:01:27.468Z,994.80
2019-03-05T11:02:27.744Z,994.84
2019-03-05T11:03:27.439Z,994.74
2019-03-05T11:04:27.576Z,994.88
2019-03-05T11:05:27.647Z,994.75
2019-03-05T11:06:27.424Z,994.70
2019-03-05T11:07:27.508Z,994.73
2019-03-05T11:08:28.040Z,994.78
2019-03-05T11:09:27.797Z,994.80
2019-03-05T11:10:27.434Z,994.28
2019-03-05T11:11:27.437Z,994.37
2019-03-05T11:12:27.387Z,994.48
2019-03-05T11:13:27.250Z,994.84
2019-03-05T11:14:27.644Z,994.32
2019-03-05T11:15:27.260Z,994.47
2019-03-05T11:16:30.679Z,994.30
2019-03-05T11:18:29.637Z,994.37
2019-03-05T11:19:27.267Z,994.38
2019-03-05T11:20:27.521Z,994.81
2019-03-05T11:21:27.250Z,994.28
2019-03-05T11:22:27.258Z,994.22
2019-03-05T11:23:27.153Z,994.81
2019-03-05T11:24:27.109Z,994.56
2019-03-05T11:25:27.094Z,994.60
2019-03-05T11:26:28.586Z,994.43
2019-03-05T11:27:27.053Z,994.39
2019-03-05T11:28:27.311Z,994.50
2019-03-05T11:29:27.036Z,994.83
2019-03-05T11:30:35.780Z,994.67
2019-03-05T11:31:28.626Z,994.65
2019-03-05T11:32:27.322Z,994.85
2019-03-05T11:33:26.930Z,994.58
2019-03-05T11:34:27.138Z,994.42
2019-03-05T11:35:27.612Z,994.58
2019-03-05T11:36:27.533Z,994.28
2019-03-05T11:37:26.926Z,994.52
2019-03-05T11:39:26.924Z,994.35
2019-03-05T11:40:26.855Z,994.84
2019-03-05T11:41:26.763Z,994.95
2019-03-05T11:42:27.005Z,995.15
2019-03-05T11:43:27.460Z,995.02
2019-03-05T11:44:27.071Z,994.44
2019-03-05T11:45:26.701Z,994.27
2019-03-05T11:48:26.637Z,994.15
2019-03-05T11:49:26.652Z,994.13
2019-03-05T11:50:26.966Z,994.17
2019-03-05T11:51:26.795Z,994.40
2019-03-05T11:52:26.634Z,994.30
2019-03-05T11:53:26.732Z,994.30
2019-03-05T11:54:26.537Z,994.23
2019-03-05T11:55:26.660Z,994.24
2019-03-05T11:56:26.907Z,994.34
2019-03-05T11:57:26.575Z,994.29
2019-03-05T11:58:26.452Z,994.23
2019-03-05T11:59:26.549Z,994.36
2019-03-05T12:00:26.536Z,994.43
2019-03-05T12:01:26.449Z,994.27
2019-03-05T12:02:26.874Z,994.34
2019-03-05T12:04:26.330Z,994.46
2019-03-05T12:05:26.394Z,994.44
2019-03-05T12:06:26.309Z,994.52
2019-03-05T12:07:26.404Z,994.62
2019-03-05T12:08:26.606Z,994.74
2019-03-05T12:09:26.267Z,994.68
2019-03-05T12:10:26.541Z,994.72
2019-03-05T12:11:26.495Z,994.62
2019-03-05T12:13:26.311Z,994.62
2019-03-05T12:14:26.626Z,994.57
2019-03-05T12:15:26.368Z,994.54
2019-03-05T12:17:26.139Z,994.81
2019-03-05T12:20:26.628Z,994.87
2019-03-05T12:21:26.951Z,994.86
2019-03-05T12:22:27.962Z,994.89
2019-03-05T12:23:26.969Z,995.16
2019-03-05T12:24:26.103Z,995.69
2019-03-05T12:25:26.096Z,995.39
2019-03-05T12:26:26.308Z,995.88
2019-03-05T12:27:27.155Z,995.96
2019-03-05T12:28:25.935Z,996.04
2019-03-05T12:29:26.029Z,996.04
2019-03-05T12:30:25.960Z,995.06
2019-03-05T12:31:25.910Z,995.00
2019-03-05T12:32:27.245Z,994.91
2019-03-05T12:33:26.411Z,995.42
2019-03-05T12:34:25.972Z,994.95
2019-03-05T12:35:25.837Z,995.09
2019-03-05T12:36:25.773Z,995.24
2019-03-05T12:37:25.761Z,995.08
2019-03-05T12:38:26.106Z,994.89
2019-03-05T12:39:25.737Z,994.99
2019-03-05T12:40:25.665Z,995.06
2019-03-05T12:41:25.662Z,994.95
2019-03-05T12:42:25.615Z,995.05
2019-03-05T12:43:25.661Z,994.98
2019-03-05T12:44:25.970Z,994.87
2019-03-05T12:45:25.705Z,994.85
2019-03-05T12:46:30.762Z,994.85
2019-03-05T12:48:25.647Z,994.83
2019-03-05T12:49:25.546Z,994.81
2019-03-05T12:50:25.880Z,994.76
2019-03-05T12:51:25.551Z,994.78
2019-03-05T12:52:26.605Z,994.78
2019-03-05T12:53:26.277Z,994.77
2019-03-05T12:55:26.425Z,994.77
2019-03-05T12:56:26.234Z,994.76
2019-03-05T12:57:26.278Z,994.87
2019-03-05T12:58:26.451Z,994.76
2019-03-05T13:00:25.712Z,995.05
2019-03-05T13:02:26.222Z,995.18
2019-03-05T13:03:25.270Z,995.06
2019-03-05T13:04:25.264Z,995.11
2019-03-05T13:05:25.220Z,995.14
2019-03-05T13:06:25.222Z,995.07
2019-03-05T13:07:25.389Z,995.12
2019-03-05T13:08:25.849Z,995.08
2019-03-05T13:10:25.267Z,995.14
2019-03-05T13:11:25.273Z,995.22
2019-03-05T13:12:25.236Z,995.15
2019-03-05T13:13:25.155Z,995.07
2019-03-05T13:14:26.921Z,995.07
2019-03-05T13:15:25.142Z,995.07
2019-03-05T13:16:25.961Z,995.12
2019-03-05T13:17:25.333Z,995.13
2019-03-05T13:18:26.894Z,995.15
2019-03-05T13:19:24.890Z,995.09
2019-03-05T13:20:26.264Z,995.24
2019-03-05T13:22:28.738Z,995.22
2019-03-05T13:23:24.805Z,995.78
2019-03-05T13:24:24.896Z,995.59
2019-03-05T13:25:28.520Z,995.66
2019-03-05T13:26:27.624Z,995.85
2019-03-05T13:27:28.036Z,995.61
2019-03-05T13:28:25.695Z,995.74
2019-03-05T13:29:24.970Z,995.72